createdAt,value
2023-01-25T00:01:08.799Z,100236.47
2023-01-25T00:06:13.541Z,100250.66
2023-01-25T00:11:20.325Z,100244.88
2023-01-25T00:16:25.248Z,100238.81
2023-01-25T00:21:30.141Z,100241.09
2023-01-25T00:26:37.081Z,100242.94
2023-01-25T00:31:56.639Z,100226.41
2023-01-25T00:37:13.624Z,100214.88
2023-01-25T00:42:20.934Z,100219.63
2023-01-25T00:47:25.458Z,100216.81
2023-01-25T00:52:30.021Z,100212.22
2023-01-25T00:57:35.919Z,100204.88
2023-01-25T01:02:40.804Z,100189.50
2023-01-25T01:07:45.287Z,100199.81
2023-01-25T01:12:52.124Z,100202.47
2023-01-25T01:17:57.335Z,100194.28
2023-01-25T01:23:01.785Z,100183.81
2023-01-25T01:28:07.877Z,100180.34
2023-01-25T01:33:12.453Z,100175.19
2023-01-25T01:38:16.945Z,100178.00
2023-01-25T01:43:25.537Z,100174.81
2023-01-25T01:48:39.349Z,100175.47
2023-01-25T01:53:51.092Z,100165.47
2023-01-25T01:58:59.348Z,100166.19
2023-01-25T02:04:06.542Z,100167.31
2023-01-25T02:09:13.396Z,100168.91
2023-01-25T02:14:20.088Z,100155.41
2023-01-25T02:19:39.478Z,100157.00
2023-01-25T02:24:51.920Z,100154.75
2023-01-25T02:29:58.209Z,100154.00
2023-01-25T02:35:02.672Z,100144.19
2023-01-25T02:40:08.932Z,100139.44
2023-01-25T02:45:20.647Z,100140.88
2023-01-25T02:50:25.200Z,100133.75
2023-01-25T02:55:30.577Z,100129.75
2023-01-25T03:00:36.525Z,100122.97
2023-01-25T03:05:41.207Z,100125.81
2023-01-25T03:10:45.833Z,100130.34
2023-01-25T03:15:51.993Z,100130.81
2023-01-25T03:20:57.104Z,100118.91
2023-01-25T03:26:13.531Z,100122.78
2023-01-25T03:31:34.386Z,100117.28
2023-01-25T03:36:39.274Z,100105.03
2023-01-25T03:41:43.833Z,100105.66
2023-01-25T03:46:52.247Z,100097.78
2023-01-25T03:51:58.736Z,100093.41
2023-01-25T03:57:12.994Z,100100.75
2023-01-25T04:02:28.318Z,100097.16
2023-01-25T04:07:34.007Z,100097.03
2023-01-25T04:12:39.437Z,100093.25
2023-01-25T04:17:45.454Z,100087.72
2023-01-25T04:22:58.014Z,100072.50
2023-01-25T04:28:09.083Z,100080.31
2023-01-25T04:33:14.910Z,100071.59
2023-01-25T04:38:21.095Z,100066.88
2023-01-25T04:43:26.452Z,100069.94
2023-01-25T04:48:37.426Z,100067.13
2023-01-25T04:53:44.889Z,100063.41
2023-01-25T04:58:49.726Z,100055.69
2023-01-25T05:03:55.701Z,100062.66
2023-01-25T05:09:08.748Z,100062.34
2023-01-25T05:14:13.411Z,100054.25
2023-01-25T05:19:21.102Z,100051.50
2023-01-25T05:24:37.292Z,100057.22
2023-01-25T05:29:46.372Z,100055.84
2023-01-25T05:34:52.770Z,100042.97
2023-01-25T05:39:58.065Z,100037.38
2023-01-25T05:45:03.295Z,100030.31
2023-01-25T05:50:11.708Z,100032.38
2023-01-25T05:55:39.662Z,100024.56
2023-01-25T06:00:47.702Z,100024.41
2023-01-25T06:06:05.055Z,100025.00
2023-01-25T06:11:12.151Z,100023.28
2023-01-25T06:16:21.614Z,100019.25
2023-01-25T06:21:39.160Z,100028.97
2023-01-25T06:26:43.679Z,100010.31
2023-01-25T06:31:48.145Z,100018.72
2023-01-25T06:36:53.979Z,100014.78
2023-01-25T06:41:58.393Z,100004.97
2023-01-25T06:47:03.101Z,100008.19
2023-01-25T06:52:08.969Z,100008.34
2023-01-25T06:57:13.734Z,100010.84
2023-01-25T07:02:18.283Z,100014.94
2023-01-25T07:07:24.099Z,100011.44
2023-01-25T07:12:30.110Z,100006.94
2023-01-25T07:17:34.635Z,100006.38
2023-01-25T07:22:40.398Z,99999.94
2023-01-25T07:27:44.924Z,99995.88
2023-01-25T07:32:49.433Z,99994.44
2023-01-25T07:37:57.284Z,99988.50
2023-01-25T07:43:01.882Z,99977.78
2023-01-25T07:48:11.651Z,99975.22
2023-01-25T07:53:17.279Z,99976.78
2023-01-25T07:58:21.936Z,99970.25
2023-01-25T08:03:26.318Z,99966.06
2023-01-25T08:08:34.123Z,99963.81
2023-01-25T08:13:38.446Z,99958.94
2023-01-25T08:18:42.961Z,99963.91
2023-01-25T08:23:48.898Z,99957.22
2023-01-25T08:28:53.978Z,99952.84
2023-01-25T08:33:59.349Z,99955.16
2023-01-25T08:39:09.072Z,99946.47
2023-01-25T08:44:13.491Z,99935.91
2023-01-25T08:49:18.131Z,99931.09
2023-01-25T08:54:24.667Z,99932.22
2023-01-25T08:59:29.243Z,99927.94
2023-01-25T09:04:33.948Z,99926.75
2023-01-25T09:09:39.559Z,99922.34
2023-01-25T09:14:44.234Z,99918.06
2023-01-25T09:25:00.113Z,99928.09
2023-01-25T09:30:10.898Z,99902.44
2023-01-25T09:35:18.773Z,99901.38
2023-01-25T09:40:29.889Z,99897.28
2023-01-25T09:45:35.823Z,99891.50
2023-01-25T09:51:01.299Z,99886.72
2023-01-25T09:56:18.752Z,99895.81
2023-01-25T10:01:39.027Z,99879.69
2023-01-25T10:06:58.934Z,99876.75
2023-01-25T10:12:16.547Z,99855.66
2023-01-25T10:17:31.137Z,99850.19
2023-01-25T10:22:44.692Z,99843.78
2023-01-25T10:28:25.792Z,99826.59
2023-01-25T10:33:36.023Z,99833.81
2023-01-25T10:38:44.306Z,99811.03
2023-01-25T10:44:10.043Z,99804.22
2023-01-25T10:49:24.641Z,99808.75
2023-01-25T10:54:30.232Z,99807.44
2023-01-25T10:59:38.161Z,99798.72
2023-01-25T11:04:47.198Z,99789.88
2023-01-25T11:09:51.928Z,99777.19
2023-01-25T11:14:57.961Z,99769.56
2023-01-25T11:20:20.960Z,99758.59
2023-01-25T11:25:33.862Z,99758.47
2023-01-25T11:30:39.879Z,99760.28
2023-01-25T11:36:10.304Z,99748.19
2023-01-25T11:41:30.796Z,99741.66
2023-01-25T11:46:55.623Z,99739.16
2023-01-25T11:52:16.419Z,99743.88
2023-01-25T11:57:50.755Z,99715.28
2023-01-25T12:03:43.496Z,99714.19
2023-01-25T12:09:16.657Z,99707.22
2023-01-25T12:14:35.981Z,99708.84
2023-01-25T12:20:22.989Z,99689.91
2023-01-25T12:25:42.288Z,99677.72
2023-01-25T12:31:04.953Z,99676.28
2023-01-25T12:36:19.058Z,99673.22
2023-01-25T12:41:37.087Z,99655.38
2023-01-25T12:46:49.605Z,99646.50
2023-01-25T12:51:57.508Z,99640.53
2023-01-25T12:57:17.536Z,99645.09
2023-01-25T13:02:51.772Z,99629.06
2023-01-25T13:08:08.016Z,99632.56
2023-01-25T13:13:26.392Z,99622.50
2023-01-25T13:18:41.558Z,99613.31
2023-01-25T13:23:47.937Z,99607.16
2023-01-25T13:28:55.303Z,99606.94
2023-01-25T13:34:00.352Z,99603.78
2023-01-25T13:39:45.145Z,99580.53
2023-01-25T13:44:54.014Z,99573.84
2023-01-25T13:50:05.376Z,99565.44
2023-01-25T13:55:19.630Z,99569.69
2023-01-25T14:00:26.302Z,99568.38
2023-01-25T14:05:30.701Z,99562.66
2023-01-25T14:10:36.120Z,99561.69
2023-01-25T14:15:43.040Z,99559.53
2023-01-25T14:20:49.932Z,99542.69
2023-01-25T14:25:56.152Z,99540.59
2023-01-25T14:31:02.516Z,99540.38
2023-01-25T14:36:24.184Z,99534.38
2023-01-25T14:41:34.093Z,99529.16
2023-01-25T14:46:42.049Z,99517.09
2023-01-25T14:51:50.124Z,99521.31
2023-01-25T14:56:57.344Z,99517.81
2023-01-25T15:02:17.018Z,99511.47
2023-01-25T15:07:37.459Z,99508.31
2023-01-25T15:12:42.127Z,99507.47
2023-01-25T15:17:50.900Z,99505.00
2023-01-25T15:22:56.086Z,99487.56
2023-01-25T15:28:00.471Z,99490.88
2023-01-25T15:33:06.964Z,99482.91
2023-01-25T15:38:12.402Z,99479.41
2023-01-25T15:43:19.556Z,99478.81
2023-01-25T15:48:31.609Z,99482.94
2023-01-25T15:53:36.450Z,99475.84
2023-01-25T15:58:44.161Z,99463.50
2023-01-25T16:03:50.239Z,99453.31
2023-01-25T16:08:54.551Z,99452.50
2023-01-25T16:13:59.058Z,99448.44
2023-01-25T16:19:04.931Z,99444.94
2023-01-25T16:24:10.495Z,99440.34
2023-01-25T16:29:15.180Z,99432.63
2023-01-25T16:34:21.994Z,99422.03
2023-01-25T16:39:28.503Z,99425.84
2023-01-25T16:44:33.181Z,99430.25
2023-01-25T16:49:39.058Z,99429.75
2023-01-25T16:54:43.366Z,99430.31
2023-01-25T16:59:47.572Z,99405.94
2023-01-25T17:04:53.617Z,99405.00
2023-01-25T17:09:58.070Z,99392.25
2023-01-25T17:15:02.876Z,99388.22
2023-01-25T17:20:11.692Z,99380.03
2023-01-25T17:25:16.515Z,99369.28
2023-01-25T17:30:21.162Z,99370.50
2023-01-25T17:35:27.083Z,99360.31
2023-01-25T17:40:31.547Z,99356.66
2023-01-25T17:45:39.467Z,99354.50
2023-01-25T17:50:45.403Z,99337.34
2023-01-25T17:55:49.895Z,99343.22
2023-01-25T18:01:02.153Z,99332.38
2023-01-25T18:06:20.419Z,99321.06
2023-01-25T18:11:27.385Z,99309.06
2023-01-25T18:16:33.619Z,99307.84
2023-01-25T18:21:41.938Z,99303.44
2023-01-25T18:26:47.308Z,99296.44
2023-01-25T18:31:52.405Z,99299.75
2023-01-25T18:36:59.483Z,99284.97
2023-01-25T18:42:04.452Z,99277.81
2023-01-25T18:47:13.810Z,99277.16
2023-01-25T18:52:22.123Z,99266.22
2023-01-25T18:57:26.539Z,99267.13
2023-01-25T19:02:30.988Z,99264.09
2023-01-25T19:07:36.831Z,99255.41
2023-01-25T19:12:41.368Z,99251.63
2023-01-25T19:17:45.761Z,99248.84
2023-01-25T19:22:55.561Z,99242.91
2023-01-25T19:28:00.669Z,99238.66
2023-01-25T19:33:05.711Z,99233.63
2023-01-25T19:38:11.333Z,99235.53
2023-01-25T19:43:15.527Z,99236.44
2023-01-25T19:48:20.039Z,99229.50
2023-01-25T19:53:25.617Z,99229.84
2023-01-25T19:58:31.328Z,99235.09
2023-01-25T20:03:36.132Z,99229.94
2023-01-25T20:08:44.848Z,99216.16
2023-01-25T20:13:50.672Z,99215.31
2023-01-25T20:18:57.681Z,99215.66
2023-01-25T20:24:07.642Z,99210.56
2023-01-25T20:29:14.721Z,99206.69
2023-01-25T20:34:22.474Z,99193.94
2023-01-25T20:39:28.044Z,99196.88
2023-01-25T20:44:32.964Z,99188.88
2023-01-25T20:49:38.457Z,99175.94
2023-01-25T20:54:44.294Z,99180.97
2023-01-25T20:59:49.049Z,99174.44
2023-01-25T21:04:53.477Z,99163.13
2023-01-25T21:09:59.115Z,99165.13
2023-01-25T21:15:03.693Z,99173.00
2023-01-25T21:20:10.136Z,99162.47
2023-01-25T21:25:15.961Z,99151.75
2023-01-25T21:30:22.467Z,99154.34
2023-01-25T21:35:29.683Z,99145.94
2023-01-25T21:40:35.609Z,99142.94
2023-01-25T21:45:57.544Z,99153.31
2023-01-25T21:51:19.225Z,99156.03
2023-01-25T21:56:24.846Z,99146.97
2023-01-25T22:01:29.856Z,99144.31
2023-01-25T22:06:34.624Z,99139.56
2023-01-25T22:11:40.178Z,99142.38
2023-01-25T22:16:44.615Z,99130.56
2023-01-25T22:21:49.302Z,99121.19
2023-01-25T22:27:05.559Z,99109.78
2023-01-25T22:32:10.408Z,99115.84
2023-01-25T22:37:14.678Z,99109.97
2023-01-25T22:42:20.595Z,99107.63
2023-01-25T22:47:25.175Z,99106.84
2023-01-25T22:52:29.649Z,99098.44
2023-01-25T22:57:35.474Z,99091.63
2023-01-25T23:02:40.019Z,99079.91
2023-01-25T23:07:44.731Z,99064.22
2023-01-25T23:12:50.620Z,99069.06
2023-01-25T23:18:12.143Z,99052.28
2023-01-25T23:23:16.354Z,99048.22
2023-01-25T23:28:22.340Z,99050.16
2023-01-25T23:33:26.834Z,99050.16
2023-01-25T23:38:31.433Z,99036.22
2023-01-25T23:43:38.235Z,99030.19
2023-01-25T23:48:43.529Z,99023.78
2023-01-25T23:53:48.723Z,99006.91
2023-01-25T23:58:54.571Z,99000.09
